createdAt,value
2018-08-11T00:02:23.768Z,84.30
2018-08-11T00:04:52.456Z,84.30
2018-08-11T00:07:21.169Z,84.40
2018-08-11T00:09:49.912Z,84.50
2018-08-11T00:12:18.662Z,84.90
2018-08-11T00:14:47.376Z,85.20
2018-08-11T00:17:16.136Z,85.20
2018-08-11T00:19:44.844Z,85.10
2018-08-11T00:22:13.596Z,85.20
2018-08-11T00:24:42.328Z,85.10
2018-08-11T00:27:11.116Z,85.20
2018-08-11T00:29:39.812Z,85.30
2018-08-11T00:32:08.604Z,85.40
2018-08-11T00:34:37.502Z,85.40
2018-08-11T00:37:06.489Z,85.50
2018-08-11T00:39:35.592Z,85.40
2018-08-11T00:42:04.539Z,85.30
2018-08-11T00:44:33.203Z,85.40
2018-08-11T00:47:02.023Z,85.40
2018-08-11T00:49:30.777Z,85.50
2018-08-11T00:51:59.436Z,85.30
2018-08-11T00:54:28.114Z,85.50
2018-08-11T00:56:56.880Z,85.80
2018-08-11T00:59:25.561Z,86.20
2018-08-11T01:01:54.244Z,86.60
2018-08-11T01:04:22.920Z,86.40
2018-08-11T01:06:51.684Z,86.40
2018-08-11T01:09:20.323Z,86.40
2018-08-11T01:11:49.293Z,86.60
2018-08-11T01:14:18.054Z,86.60
2018-08-11T01:16:46.739Z,86.80
2018-08-11T01:19:15.597Z,87.00
2018-08-11T01:21:44.285Z,86.90
2018-08-11T01:24:12.861Z,87.10
2018-08-11T01:26:41.552Z,87.40
2018-08-11T01:29:10.361Z,87.70
2018-08-11T01:31:39.042Z,87.70
2018-08-11T01:34:07.718Z,87.80
2018-08-11T01:36:36.630Z,88.10
2018-08-11T01:39:07.219Z,88.40
2018-08-11T01:41:35.994Z,88.50
2018-08-11T01:44:05.049Z,88.70
2018-08-11T01:46:33.931Z,88.60
2018-08-11T01:49:02.954Z,88.60
2018-08-11T01:51:31.624Z,88.70
2018-08-11T01:54:00.488Z,88.80
2018-08-11T01:56:29.403Z,88.90
2018-08-11T01:58:58.241Z,88.90
2018-08-11T02:01:27.279Z,88.80
2018-08-11T02:03:56.190Z,88.60
2018-08-11T02:06:25.064Z,88.90
2018-08-11T02:08:53.757Z,89.40
2018-08-11T02:11:22.786Z,89.50
2018-08-11T02:13:51.710Z,89.40
2018-08-11T02:16:20.327Z,89.20
2018-08-11T02:18:49.033Z,89.20
2018-08-11T02:21:18.047Z,88.60
2018-08-11T02:23:46.689Z,88.60
2018-08-11T02:26:15.345Z,88.60
2018-08-11T02:28:44.332Z,88.70
2018-08-11T02:31:13.259Z,88.60
2018-08-11T02:33:42.173Z,88.80
2018-08-11T02:36:11.735Z,88.50
2018-08-11T02:38:40.370Z,88.20
2018-08-11T02:41:09.106Z,88.00
2018-08-11T02:43:37.789Z,88.10
2018-08-11T02:46:06.577Z,88.00
2018-08-11T02:48:35.303Z,88.00
2018-08-11T02:51:03.928Z,88.00
2018-08-11T02:53:32.624Z,87.70
2018-08-11T02:56:01.290Z,87.40
2018-08-11T02:58:29.931Z,87.70
2018-08-11T03:00:58.581Z,88.00
2018-08-11T03:03:27.409Z,88.30
2018-08-11T03:05:56.563Z,88.40
2018-08-11T03:08:25.664Z,88.30
2018-08-11T03:10:54.246Z,88.10
2018-08-11T03:13:24.918Z,87.90
2018-08-11T03:15:54.341Z,87.70
2018-08-11T03:18:23.082Z,87.60
2018-08-11T03:20:51.753Z,87.80
2018-08-11T03:23:20.354Z,87.90
2018-08-11T03:25:49.259Z,88.00
2018-08-11T03:28:18.132Z,88.10
2018-08-11T03:30:47.094Z,88.40
2018-08-11T03:33:15.731Z,88.30
2018-08-11T03:35:44.549Z,88.30
2018-08-11T03:38:13.338Z,88.20
2018-08-11T03:40:42.014Z,87.70
2018-08-11T03:43:10.707Z,87.40
2018-08-11T03:45:39.347Z,87.80
2018-08-11T03:48:08.317Z,87.70
2018-08-11T03:50:36.913Z,87.90
2018-08-11T03:53:05.987Z,87.90
2018-08-11T03:55:34.633Z,87.90
2018-08-11T03:58:03.599Z,87.90
2018-08-11T04:00:32.332Z,88.30
2018-08-11T04:03:01.247Z,88.30
2018-08-11T04:05:30.315Z,87.80
2018-08-11T04:07:58.921Z,87.80
2018-08-11T04:10:28.075Z,88.00
2018-08-11T04:12:56.698Z,88.30
2018-08-11T04:15:25.399Z,88.30
2018-08-11T04:17:54.181Z,88.30
2018-08-11T04:20:22.811Z,88.10
2018-08-11T04:22:51.467Z,88.20
2018-08-11T04:25:20.129Z,88.50
2018-08-11T04:27:48.778Z,88.30
2018-08-11T04:30:17.469Z,88.10
2018-08-11T04:32:46.485Z,88.10
2018-08-11T04:35:15.197Z,88.10
2018-08-11T04:37:43.870Z,87.20
2018-08-11T04:40:12.784Z,86.60
2018-08-11T04:42:41.528Z,86.20
2018-08-11T04:45:10.426Z,85.70
2018-08-11T04:47:39.080Z,86.20
2018-08-11T04:50:08.143Z,86.30
2018-08-11T04:52:37.015Z,86.40
2018-08-11T04:55:06.220Z,85.90
2018-08-11T04:57:35.451Z,85.00
2018-08-11T05:00:05.398Z,84.30
2018-08-11T05:02:34.175Z,83.70
2018-08-11T05:05:03.366Z,82.90
2018-08-11T05:07:32.135Z,82.40
2018-08-11T05:10:01.002Z,81.90
2018-08-11T05:12:29.654Z,81.60
2018-08-11T05:14:58.381Z,81.20
2018-08-11T05:17:27.385Z,80.90
2018-08-11T05:19:56.329Z,80.60
2018-08-11T05:22:24.983Z,80.60
2018-08-11T05:24:53.921Z,80.20
2018-08-11T05:27:23.035Z,80.00
2018-08-11T05:29:51.969Z,79.70
2018-08-11T05:32:20.628Z,79.60
2018-08-11T05:34:49.361Z,79.20
2018-08-11T05:37:17.996Z,79.40
2018-08-11T05:39:46.797Z,79.60
2018-08-11T05:42:15.428Z,79.80
2018-08-11T05:44:44.033Z,79.50
2018-08-11T05:47:12.917Z,79.10
2018-08-11T05:49:41.724Z,78.30
2018-08-11T05:52:10.421Z,77.60
2018-08-11T05:54:39.040Z,76.90
2018-08-11T05:57:08.082Z,77.00
2018-08-11T05:59:37.380Z,72.90
2018-08-11T06:02:06.681Z,71.70
2018-08-11T06:04:35.617Z,71.10
2018-08-11T06:07:04.624Z,69.50
2018-08-11T06:09:33.274Z,69.50
2018-08-11T06:12:02.231Z,68.70
2018-08-11T06:14:31.672Z,68.90
2018-08-11T06:17:00.316Z,67.90
2018-08-11T06:19:29.136Z,67.70
2018-08-11T06:21:57.850Z,68.50
2018-08-11T06:24:27.095Z,67.20
2018-08-11T06:26:55.913Z,67.80
2018-08-11T06:29:24.549Z,67.20
2018-08-11T06:31:53.284Z,67.80
2018-08-11T06:34:21.849Z,67.00
2018-08-11T06:36:50.547Z,68.20
2018-08-11T06:39:19.357Z,66.90
2018-08-11T06:41:47.994Z,65.80
2018-08-11T06:44:16.774Z,65.60
2018-08-11T06:46:45.589Z,66.50
2018-08-11T06:49:14.397Z,66.60
2018-08-11T06:51:43.231Z,65.90
2018-08-11T06:54:12.044Z,65.70
2018-08-11T06:56:40.761Z,65.60
2018-08-11T06:59:09.433Z,65.10
2018-08-11T07:01:38.070Z,66.20
2018-08-11T07:04:07.026Z,65.70
2018-08-11T07:06:36.392Z,66.90
2018-08-11T07:09:07.923Z,65.50
2018-08-11T07:11:38.617Z,65.20
2018-08-11T07:14:07.343Z,64.40
2018-08-11T07:16:36.434Z,64.00
2018-08-11T07:19:05.164Z,65.10
2018-08-11T07:21:33.819Z,64.30
2018-08-11T07:24:02.567Z,65.30
2018-08-11T07:26:31.217Z,64.60
2018-08-11T07:29:00.160Z,64.20
2018-08-11T07:31:28.783Z,63.90
2018-08-11T07:33:57.720Z,62.90
2018-08-11T07:36:26.743Z,63.70
2018-08-11T07:38:55.611Z,63.60
2018-08-11T07:41:24.373Z,62.50
2018-08-11T07:43:53.189Z,63.60
2018-08-11T07:46:22.505Z,62.80
2018-08-11T07:48:51.134Z,63.00
2018-08-11T07:51:19.837Z,63.40
2018-08-11T07:53:48.609Z,63.20
2018-08-11T07:56:17.310Z,63.00
2018-08-11T07:58:46.444Z,63.90
2018-08-11T08:01:15.788Z,64.00
2018-08-11T08:03:44.427Z,64.60
2018-08-11T08:06:13.397Z,63.90
2018-08-11T08:08:42.098Z,64.00
2018-08-11T08:11:11.166Z,63.20
2018-08-11T08:13:39.761Z,62.70
2018-08-11T08:16:08.367Z,63.60
2018-08-11T08:18:37.107Z,62.80
2018-08-11T08:21:05.861Z,63.50
2018-08-11T08:23:34.896Z,63.90
2018-08-11T08:26:03.817Z,63.10
2018-08-11T08:28:32.547Z,62.80
2018-08-11T08:31:01.457Z,62.80
2018-08-11T08:33:30.360Z,63.00
2018-08-11T08:35:59.537Z,62.70
2018-08-11T08:38:28.890Z,63.50
2018-08-11T08:40:57.557Z,63.60
2018-08-11T08:43:26.423Z,64.30
2018-08-11T08:45:55.154Z,63.00
2018-08-11T08:48:23.746Z,62.10
2018-08-11T08:50:52.474Z,62.60
2018-08-11T08:53:21.244Z,64.00
2018-08-11T08:55:50.276Z,63.20
2018-08-11T08:58:18.997Z,64.20
2018-08-11T09:00:47.691Z,62.50
2018-08-11T09:03:16.644Z,63.00
2018-08-11T09:05:45.311Z,64.10
2018-08-11T09:08:13.917Z,62.90
2018-08-11T09:10:42.647Z,62.90
2018-08-11T09:13:11.477Z,62.70
2018-08-11T09:15:40.177Z,63.20
2018-08-11T09:18:09.140Z,63.70
2018-08-11T09:20:38.240Z,63.20
2018-08-11T09:23:07.171Z,62.20
2018-08-11T09:25:35.922Z,62.90
2018-08-11T09:28:04.537Z,62.30
2018-08-11T09:30:33.485Z,62.90
2018-08-11T09:33:02.099Z,62.90
2018-08-11T09:35:30.784Z,63.10
2018-08-11T09:37:59.423Z,62.50
2018-08-11T09:40:28.221Z,62.40
2018-08-11T09:42:56.910Z,61.00
2018-08-11T09:45:25.621Z,61.50
2018-08-11T09:47:54.581Z,60.70
2018-08-11T09:50:23.259Z,63.60
2018-08-11T09:52:52.201Z,60.80
2018-08-11T09:55:20.975Z,60.20
2018-08-11T09:57:49.644Z,60.90
2018-08-11T10:00:23.225Z,60.80
2018-08-11T10:02:52.821Z,61.60
2018-08-11T10:05:22.413Z,60.60
2018-08-11T10:07:51.513Z,59.90
2018-08-11T10:10:20.149Z,60.30
2018-08-11T10:12:48.765Z,61.00
2018-08-11T10:15:17.519Z,60.20
2018-08-11T10:17:46.120Z,59.30
2018-08-11T10:20:15.066Z,58.90
2018-08-11T10:22:44.927Z,57.90
2018-08-11T10:25:13.588Z,57.60
2018-08-11T10:27:42.255Z,58.50
2018-08-11T10:30:10.920Z,59.80
2018-08-11T10:32:39.580Z,60.80
2018-08-11T10:35:08.253Z,60.70
2018-08-11T10:37:37.253Z,61.20
2018-08-11T10:40:06.178Z,58.90
2018-08-11T10:42:35.043Z,58.70
2018-08-11T10:45:04.121Z,58.70
2018-08-11T10:47:32.765Z,60.50
2018-08-11T10:50:01.439Z,59.40
2018-08-11T10:52:30.473Z,58.00
2018-08-11T10:54:59.589Z,59.80
2018-08-11T10:57:28.229Z,59.90
2018-08-11T10:59:56.917Z,61.10
2018-08-11T11:02:25.555Z,61.70
2018-08-11T11:04:54.306Z,61.40
2018-08-11T11:07:23.034Z,59.30
2018-08-11T11:09:51.882Z,59.70
2018-08-11T11:12:20.513Z,58.70
2018-08-11T11:14:49.374Z,58.80
2018-08-11T11:17:18.283Z,60.10
2018-08-11T11:19:46.864Z,59.30
2018-08-11T11:22:15.587Z,59.20
2018-08-11T11:24:49.850Z,60.20
2018-08-11T11:27:18.500Z,58.40
2018-08-11T11:29:47.580Z,57.50
2018-08-11T11:32:17.113Z,57.70
2018-08-11T11:34:47.803Z,56.90
2018-08-11T11:37:24.667Z,56.40
2018-08-11T11:39:53.353Z,55.00
2018-08-11T11:42:22.125Z,56.80
2018-08-11T11:44:50.813Z,57.40
2018-08-11T11:47:19.524Z,57.80
2018-08-11T11:49:48.513Z,59.20
2018-08-11T11:52:17.376Z,57.50
2018-08-11T11:54:47.106Z,59.20
2018-08-11T11:57:15.692Z,59.80
2018-08-11T11:59:44.347Z,60.90
2018-08-11T12:02:13.825Z,58.90
2018-08-11T12:04:42.642Z,58.60
2018-08-11T12:07:11.413Z,58.10
2018-08-11T12:09:40.081Z,58.50
2018-08-11T12:12:10.127Z,58.50
2018-08-11T12:14:39.043Z,58.90
2018-08-11T12:17:08.118Z,57.50
2018-08-11T12:19:36.894Z,57.20
2018-08-11T12:22:05.979Z,53.70
2018-08-11T12:24:34.665Z,54.30
2018-08-11T12:27:03.389Z,54.40
2018-08-11T12:29:32.082Z,55.20
2018-08-11T12:32:01.071Z,53.80
2018-08-11T12:34:30.284Z,55.70
2018-08-11T12:36:58.923Z,55.60
2018-08-11T12:39:28.225Z,56.10
2018-08-11T12:41:57.420Z,57.60
2018-08-11T12:44:26.517Z,55.30
2018-08-11T12:46:55.989Z,54.10
2018-08-11T12:49:24.621Z,54.60
2018-08-11T12:51:54.833Z,55.00
2018-08-11T12:54:23.527Z,56.20
2018-08-11T12:56:53.053Z,56.00
2018-08-11T12:59:21.928Z,55.60
2018-08-11T13:01:50.843Z,56.00
2018-08-11T13:04:19.703Z,56.90
2018-08-11T13:06:48.557Z,59.30
2018-08-11T13:09:17.349Z,55.80
2018-08-11T13:11:45.917Z,55.60
2018-08-11T13:14:15.026Z,54.80
2018-08-11T13:16:44.720Z,53.00
2018-08-11T13:19:13.363Z,52.70
2018-08-11T13:21:42.307Z,51.90
2018-08-11T13:24:15.422Z,51.90
2018-08-11T13:26:44.960Z,50.50
2018-08-11T13:29:17.974Z,51.50
2018-08-11T13:31:47.785Z,51.30
2018-08-11T13:34:16.577Z,50.30
2018-08-11T13:36:45.528Z,49.00
2018-08-11T13:39:14.810Z,50.10
2018-08-11T13:41:46.740Z,49.80
2018-08-11T13:44:16.807Z,48.10
2018-08-11T13:46:46.356Z,47.90
2018-08-11T13:49:15.550Z,47.80
2018-08-11T13:51:44.201Z,47.90
2018-08-11T13:54:16.365Z,47.60
2018-08-11T13:56:46.186Z,48.20
2018-08-11T13:59:15.254Z,48.00
2018-08-11T14:01:44.648Z,46.00
2018-08-11T14:04:17.037Z,44.90
2018-08-11T14:06:46.241Z,45.40
2018-08-11T14:09:15.150Z,44.40
2018-08-11T14:11:43.785Z,42.90
2018-08-11T14:14:12.693Z,43.70
2018-08-11T14:16:41.653Z,45.60
2018-08-11T14:19:10.290Z,44.80
2018-08-11T14:21:39.167Z,46.10
2018-08-11T14:24:08.910Z,46.90
2018-08-11T14:26:37.590Z,50.50
2018-08-11T14:29:06.779Z,50.30
2018-08-11T14:31:35.885Z,51.60
2018-08-11T14:34:04.693Z,52.40
2018-08-11T14:36:34.355Z,50.70
2018-08-11T14:39:03.634Z,48.80
2018-08-11T14:41:32.401Z,49.40
2018-08-11T14:44:01.129Z,48.00
2018-08-11T14:46:29.805Z,46.20
2018-08-11T14:48:59.522Z,47.20
2018-08-11T14:51:28.384Z,49.20
2018-08-11T14:53:57.011Z,50.60
2018-08-11T14:56:25.659Z,47.90
2018-08-11T14:58:54.379Z,43.70
2018-08-11T15:01:23.071Z,45.20
2018-08-11T15:03:52.256Z,46.50
2018-08-11T15:06:21.623Z,48.30
2018-08-11T15:08:50.834Z,47.40
2018-08-11T15:11:19.704Z,47.10
2018-08-11T15:13:48.373Z,46.00
2018-08-11T15:16:17.124Z,45.80
2018-08-11T15:18:45.849Z,46.80
2018-08-11T15:21:15.453Z,46.80
2018-08-11T15:23:44.012Z,45.00
2018-08-11T15:26:12.797Z,45.00
2018-08-11T15:28:41.482Z,45.80
2018-08-11T15:31:10.794Z,45.80
2018-08-11T15:33:40.579Z,45.60
2018-08-11T15:36:09.306Z,45.30
2018-08-11T15:38:38.553Z,47.60
2018-08-11T15:41:07.405Z,48.00
2018-08-11T15:43:36.166Z,46.90
2018-08-11T15:46:04.998Z,47.60
2018-08-11T15:48:33.704Z,48.60
2018-08-11T15:51:02.550Z,50.30
2018-08-11T15:53:32.075Z,49.30
2018-08-11T15:56:00.831Z,49.00
2018-08-11T15:58:29.513Z,46.40
2018-08-11T16:00:58.245Z,46.10
2018-08-11T16:03:26.912Z,44.30
2018-08-11T16:05:55.645Z,45.90
2018-08-11T16:08:25.756Z,46.80
2018-08-11T16:10:54.886Z,47.20
2018-08-11T16:13:23.677Z,47.10
2018-08-11T16:15:52.428Z,47.00
2018-08-11T16:18:21.127Z,46.90
2018-08-11T16:20:49.649Z,47.60
2018-08-11T16:23:19.459Z,48.50
2018-08-11T16:25:48.110Z,47.10
2018-08-11T16:28:16.778Z,47.40
2018-08-11T16:30:45.443Z,48.50
2018-08-11T16:33:14.150Z,49.10
2018-08-11T16:35:42.793Z,47.70
2018-08-11T16:38:11.725Z,47.80
2018-08-11T16:40:40.415Z,47.10
2018-08-11T16:43:09.058Z,47.20
2018-08-11T16:45:37.797Z,45.60
2018-08-11T16:48:06.445Z,45.30
2018-08-11T16:50:35.132Z,46.70
2018-08-11T16:53:03.841Z,47.10
2018-08-11T16:55:32.497Z,46.70
2018-08-11T16:58:01.225Z,47.00
2018-08-11T17:00:29.868Z,46.80
2018-08-11T17:02:58.556Z,47.70
2018-08-11T17:05:27.236Z,48.00
2018-08-11T17:07:55.973Z,47.90
2018-08-11T17:10:24.593Z,47.70
2018-08-11T17:12:53.269Z,49.10
2018-08-11T17:15:21.961Z,49.20
2018-08-11T17:17:50.662Z,50.10
2018-08-11T17:20:19.388Z,50.20
2018-08-11T17:22:48.052Z,50.20
2018-08-11T17:25:23.594Z,49.60
2018-08-11T17:27:52.253Z,50.40
2018-08-11T17:30:21.017Z,51.50
2018-08-11T17:32:49.741Z,50.20
2018-08-11T17:35:18.427Z,50.20
2018-08-11T17:37:47.097Z,50.00
2018-08-11T17:40:15.722Z,48.50
2018-08-11T17:42:44.405Z,49.20
2018-08-11T17:45:13.065Z,49.00
2018-08-11T17:47:41.694Z,48.10
2018-08-11T17:50:11.684Z,49.80
2018-08-11T17:52:41.905Z,49.30
2018-08-11T17:55:11.871Z,49.60
2018-08-11T17:57:41.908Z,50.50
2018-08-11T18:00:11.561Z,51.60
2018-08-11T18:02:40.168Z,53.00
2018-08-11T18:05:08.898Z,53.30
2018-08-11T18:07:37.564Z,55.00
2018-08-11T18:10:06.670Z,54.10
2018-08-11T18:12:35.327Z,55.00
2018-08-11T18:15:04.244Z,55.80
2018-08-11T18:17:33.438Z,54.50
2018-08-11T18:20:02.108Z,55.60
2018-08-11T18:22:30.748Z,56.30
2018-08-11T18:24:59.392Z,55.80
2018-08-11T18:27:28.009Z,56.70
2018-08-11T18:29:56.667Z,56.80
2018-08-11T18:32:25.331Z,56.10
2018-08-11T18:34:53.993Z,57.20
2018-08-11T18:37:22.694Z,57.20
2018-08-11T18:39:51.366Z,57.60
2018-08-11T18:42:20.057Z,57.70
2018-08-11T18:44:48.778Z,58.50
2018-08-11T18:47:17.441Z,58.50
2018-08-11T18:49:46.134Z,58.90
2018-08-11T18:52:14.821Z,59.00
2018-08-11T18:54:43.496Z,58.80
2018-08-11T18:57:12.166Z,59.30
2018-08-11T18:59:40.907Z,58.90
2018-08-11T19:02:09.560Z,59.20
2018-08-11T19:04:38.289Z,59.40
2018-08-11T19:07:07.023Z,60.30
2018-08-11T19:09:35.721Z,63.00
2018-08-11T19:12:04.475Z,63.80
2018-08-11T19:14:33.181Z,65.00
2018-08-11T19:17:01.830Z,65.40
2018-08-11T19:19:31.004Z,65.90
2018-08-11T19:22:00.066Z,66.20
2018-08-11T19:24:28.730Z,66.50
2018-08-11T19:26:57.442Z,66.60
2018-08-11T19:29:26.106Z,66.90
2018-08-11T19:31:54.710Z,67.30
2018-08-11T19:34:23.478Z,67.30
2018-08-11T19:36:52.284Z,66.60
2018-08-11T19:39:20.950Z,66.70
2018-08-11T19:41:49.662Z,67.00
2018-08-11T19:44:18.477Z,67.70
2018-08-11T19:46:47.103Z,68.10
2018-08-11T19:49:15.781Z,68.40
2018-08-11T19:51:44.586Z,68.70
2018-08-11T19:54:14.094Z,68.20
2018-08-11T19:56:42.862Z,68.50
2018-08-11T19:59:11.565Z,69.10
2018-08-11T20:01:40.380Z,69.10
2018-08-11T20:04:09.037Z,69.40
2018-08-11T20:06:37.851Z,69.60
2018-08-11T20:09:08.848Z,69.60
2018-08-11T20:11:37.671Z,69.90
2018-08-11T20:14:06.427Z,70.20
2018-08-11T20:16:35.145Z,70.30
2018-08-11T20:19:03.927Z,70.90
2018-08-11T20:21:33.082Z,71.50
2018-08-11T20:24:01.773Z,71.70
2018-08-11T20:26:30.529Z,71.90
2018-08-11T20:28:59.245Z,72.20
2018-08-11T20:31:28.021Z,72.50
2018-08-11T20:33:56.771Z,72.80
2018-08-11T20:36:25.668Z,73.10
2018-08-11T20:38:54.350Z,73.50
2018-08-11T20:41:23.017Z,73.60
2018-08-11T20:43:51.652Z,73.90
2018-08-11T20:46:22.149Z,74.10
2018-08-11T20:48:50.748Z,74.30
2018-08-11T20:51:19.410Z,74.50
2018-08-11T20:53:52.436Z,74.90
2018-08-11T20:56:21.077Z,75.00
2018-08-11T20:58:49.712Z,75.00
2018-08-11T21:01:18.493Z,75.20
2018-08-11T21:03:47.201Z,75.30
2018-08-11T21:06:16.002Z,75.50
2018-08-11T21:08:44.636Z,75.70
2018-08-11T21:11:13.488Z,75.80
2018-08-11T21:13:42.235Z,76.30
2018-08-11T21:16:10.886Z,76.40
2018-08-11T21:18:39.580Z,76.80
2018-08-11T21:21:08.279Z,76.90
2018-08-11T21:23:36.986Z,76.90
2018-08-11T21:26:05.673Z,77.30
2018-08-11T21:28:34.383Z,77.70
2018-08-11T21:31:03.090Z,77.80
2018-08-11T21:33:31.932Z,77.80
2018-08-11T21:36:00.666Z,77.90
2018-08-11T21:38:29.294Z,78.20
2018-08-11T21:40:58.061Z,78.60
2018-08-11T21:43:27.481Z,78.70
2018-08-11T21:45:56.157Z,78.60
2018-08-11T21:48:24.910Z,78.90
2018-08-11T21:50:54.700Z,79.40
2018-08-11T21:53:23.403Z,79.50
2018-08-11T21:55:52.131Z,79.50
2018-08-11T21:58:20.877Z,79.40
2018-08-11T22:00:55.319Z,79.30
2018-08-11T22:03:25.102Z,79.40
2018-08-11T22:05:53.874Z,79.40
2018-08-11T22:08:23.669Z,79.30
2018-08-11T22:10:52.422Z,79.50
2018-08-11T22:13:21.110Z,79.40
2018-08-11T22:15:49.799Z,79.60
2018-08-11T22:18:18.489Z,79.90
2018-08-11T22:20:48.751Z,79.60
2018-08-11T22:23:17.560Z,79.50
2018-08-11T22:25:46.319Z,79.50
2018-08-11T22:28:15.307Z,79.70
2018-08-11T22:30:44.219Z,79.90
2018-08-11T22:33:12.951Z,80.60
2018-08-11T22:35:42.224Z,80.50
2018-08-11T22:38:11.009Z,80.70
2018-08-11T22:40:40.228Z,80.20
2018-08-11T22:43:08.891Z,80.30
2018-08-11T22:45:37.884Z,80.80
2018-08-11T22:48:06.717Z,80.20
2018-08-11T22:50:35.501Z,80.20
2018-08-11T22:53:04.244Z,80.90
2018-08-11T22:55:32.927Z,80.70
2018-08-11T22:58:01.588Z,81.10
2018-08-11T23:00:30.340Z,81.50
2018-08-11T23:02:58.997Z,81.60
2018-08-11T23:05:27.715Z,82.00
2018-08-11T23:07:56.410Z,82.10
2018-08-11T23:10:25.038Z,82.20
2018-08-11T23:12:53.729Z,82.30
2018-08-11T23:15:22.405Z,82.40
2018-08-11T23:17:51.293Z,82.10
2018-08-11T23:20:20.030Z,82.50
2018-08-11T23:22:48.771Z,82.80
2018-08-11T23:25:17.578Z,82.70
2018-08-11T23:27:46.362Z,83.00
2018-08-11T23:30:16.541Z,82.90
2018-08-11T23:32:45.584Z,82.80
2018-08-11T23:35:14.641Z,82.80
2018-08-11T23:37:43.597Z,83.20
2018-08-11T23:40:12.473Z,83.10
2018-08-11T23:42:41.105Z,83.10
2018-08-11T23:45:12.574Z,83.40
2018-08-11T23:47:41.871Z,83.10
2018-08-11T23:50:11.340Z,83.20
2018-08-11T23:52:40.849Z,83.50
2018-08-11T23:55:10.543Z,83.50
2018-08-11T23:57:39.211Z,83.60
